Terminal Aerodrome Forecast
Issued by NWS Duluth, MN

Home | Current Version | Previous Version | Text Only | Print | Product List | Glossary On
Versions: 1 2 3 4 5 6 7 8 9 10 11 12 13 14 15 16 17 18 19 20 21 22 23 24 25 26 27 28 29 30 31 32 33
000
FTUS43 KDLH 041424 AAC
TAFDLH
TAF AMD
KDLH 041424Z 0414/0512 13010KT 3/4SM -SN BR BKN005 OVC012
     FM041500 15011KT 1SM -SN BR OVC008
      TEMPO 0416/0418 1/2SM SN FG OVC006
     FM042100 20010KT 2SM -SN BR OVC008
     FM050100 24011KT 4SM -SHSN BR OVC010
     FM051100 25012KT 6SM BR SCT010 OVC016=

USA.gov is the U.S. government's official web portal to all federal, state and local government web resources and services.